createdAt,value
2022-11-02T00:01:45.888Z,69.91
2022-11-02T00:04:31.096Z,69.95
2022-11-02T00:07:16.447Z,69.92
2022-11-02T00:10:01.835Z,69.93
2022-11-02T00:12:47.987Z,69.90
2022-11-02T00:15:36.118Z,69.97
2022-11-02T00:18:22.007Z,70.06
2022-11-02T00:21:07.440Z,70.04
2022-11-02T00:23:53.893Z,69.95
2022-11-02T00:26:39.112Z,70.04
2022-11-02T00:29:25.641Z,69.99
2022-11-02T00:32:13.168Z,69.83
2022-11-02T00:34:58.283Z,69.55
2022-11-02T00:37:44.182Z,69.65
2022-11-02T00:40:29.373Z,69.99
2022-11-02T00:51:15.602Z,70.14
2022-11-02T00:54:01.753Z,70.11
2022-11-02T00:56:46.998Z,70.23
2022-11-02T00:59:32.249Z,70.23
2022-11-02T01:02:18.136Z,70.11
2022-11-02T01:05:04.885Z,70.11
2022-11-02T01:07:50.304Z,69.91
2022-11-02T01:10:35.602Z,70.29
2022-11-02T01:13:20.714Z,70.13
2022-11-02T01:16:06.774Z,70.18
2022-11-02T01:18:56.964Z,70.05
2022-11-02T01:21:42.208Z,70.23
2022-11-02T01:24:27.366Z,70.06
2022-11-02T01:27:12.674Z,70.66
2022-11-02T01:29:57.860Z,70.01
2022-11-02T01:32:43.055Z,70.08
2022-11-02T01:35:28.271Z,70.22
2022-11-02T01:38:13.620Z,69.98
2022-11-02T01:41:00.020Z,70.06
2022-11-02T01:43:47.365Z,70.07
2022-11-02T01:46:42.809Z,70.23
2022-11-02T01:49:31.690Z,70.40
2022-11-02T01:52:26.348Z,70.17
2022-11-02T01:55:16.679Z,70.06
2022-11-02T01:58:08.351Z,70.11
2022-11-02T02:00:54.418Z,70.18
2022-11-02T02:03:42.416Z,70.06
2022-11-02T02:06:28.263Z,70.04
2022-11-02T02:09:14.877Z,70.19
2022-11-02T02:12:00.473Z,69.96
2022-11-02T02:14:45.968Z,70.19
2022-11-02T02:18:06.954Z,70.14
2022-11-02T02:21:25.386Z,70.00
2022-11-02T02:24:23.043Z,69.99
2022-11-02T02:27:16.588Z,70.03
2022-11-02T02:30:05.483Z,70.16
2022-11-02T02:33:10.421Z,70.17
2022-11-02T02:36:07.736Z,70.00
2022-11-02T02:39:17.155Z,70.43
2022-11-02T02:42:05.616Z,70.11
2022-11-02T02:45:13.063Z,70.28
2022-11-02T02:48:31.784Z,70.37
2022-11-02T02:51:37.921Z,70.10
2022-11-02T02:54:31.113Z,70.15
2022-11-02T02:57:22.361Z,70.27
2022-11-02T03:00:14.080Z,70.22
2022-11-02T03:03:01.459Z,70.21
2022-11-02T03:06:03.352Z,70.21
2022-11-02T03:09:10.674Z,70.24
2022-11-02T03:12:21.742Z,70.20
2022-11-02T03:15:25.830Z,70.25
2022-11-02T03:18:28.769Z,69.98
2022-11-02T03:21:29.332Z,70.19
2022-11-02T03:24:51.459Z,70.19
2022-11-02T03:27:57.892Z,70.24
2022-11-02T03:31:02.127Z,70.17
2022-11-02T03:34:15.709Z,70.28
2022-11-02T03:37:25.180Z,70.24
2022-11-02T03:40:14.674Z,70.14
2022-11-02T03:43:05.653Z,70.14
2022-11-02T03:45:56.552Z,70.09
2022-11-02T03:48:48.190Z,70.34
2022-11-02T03:51:38.391Z,70.34
2022-11-02T03:54:35.879Z,70.38
2022-11-02T03:57:30.291Z,70.28
2022-11-02T04:00:25.158Z,70.33
2022-11-02T04:03:17.866Z,70.40
2022-11-02T04:06:03.637Z,70.26
2022-11-02T04:08:53.624Z,70.30
2022-11-02T04:11:58.431Z,70.20
2022-11-02T04:14:47.782Z,70.25
2022-11-02T04:17:54.568Z,70.41
2022-11-02T04:20:40.461Z,70.34
2022-11-02T04:23:44.885Z,70.50
2022-11-02T04:26:29.973Z,70.38
2022-11-02T04:29:15.472Z,70.40
2022-11-02T04:32:01.629Z,70.25
2022-11-02T04:34:47.413Z,70.18
2022-11-02T04:37:57.267Z,70.46
2022-11-02T04:40:42.869Z,70.30
2022-11-02T04:43:28.295Z,70.57
2022-11-02T04:48:51.159Z,70.09
2022-11-02T04:51:40.174Z,70.14
2022-11-02T04:54:26.726Z,70.31
2022-11-02T04:57:16.540Z,70.29
2022-11-02T05:00:03.966Z,70.37
2022-11-02T05:02:50.728Z,70.12
2022-11-02T05:05:39.136Z,70.44
2022-11-02T05:08:25.414Z,61.24
2022-11-02T05:11:11.901Z,60.36
2022-11-02T05:13:57.492Z,57.46
2022-11-02T05:16:43.173Z,53.66
2022-11-02T05:19:31.554Z,59.89
2022-11-02T05:22:21.426Z,63.07
2022-11-02T05:25:07.591Z,64.22
2022-11-02T05:27:53.074Z,64.47
2022-11-02T05:30:38.978Z,65.09
2022-11-02T05:33:30.287Z,65.33
2022-11-02T05:36:18.354Z,65.40
2022-11-02T05:39:06.808Z,65.79
2022-11-02T05:41:52.129Z,65.67
2022-11-02T05:44:40.108Z,65.55
2022-11-02T05:47:26.031Z,65.68
2022-11-02T05:50:11.459Z,65.85
2022-11-02T05:52:57.359Z,65.97
2022-11-02T05:55:43.161Z,66.42
2022-11-02T05:58:29.206Z,66.24
2022-11-02T06:01:14.747Z,66.31
2022-11-02T06:04:00.064Z,66.41
2022-11-02T06:06:45.983Z,66.49
2022-11-02T06:09:32.403Z,66.43
2022-11-02T06:12:18.137Z,66.72
2022-11-02T06:15:03.579Z,66.73
2022-11-02T06:17:49.110Z,66.85
2022-11-02T06:20:34.446Z,67.03
2022-11-02T06:23:19.655Z,67.06
2022-11-02T06:26:04.858Z,67.06
2022-11-02T06:28:50.143Z,67.09
2022-11-02T06:31:35.541Z,67.36
2022-11-02T06:34:20.753Z,67.29
2022-11-02T06:37:05.890Z,67.24
2022-11-02T06:39:51.342Z,67.36
2022-11-02T06:42:44.956Z,67.40
2022-11-02T06:45:36.987Z,67.32
2022-11-02T06:48:23.591Z,67.30
2022-11-02T06:51:08.943Z,67.32
2022-11-02T06:53:54.375Z,67.34
2022-11-02T06:56:39.433Z,67.31
2022-11-02T06:59:24.893Z,67.29
2022-11-02T07:02:10.142Z,67.31
2022-11-02T07:04:56.157Z,67.31
2022-11-02T07:07:41.466Z,67.07
2022-11-02T07:10:28.148Z,67.35
2022-11-02T07:13:14.451Z,67.33
2022-11-02T07:15:59.699Z,67.36
2022-11-02T07:18:44.838Z,67.41
2022-11-02T07:21:30.085Z,67.20
2022-11-02T07:24:15.339Z,67.31
2022-11-02T07:27:00.645Z,67.43
2022-11-02T07:29:45.759Z,67.34
2022-11-02T07:32:30.998Z,67.19
2022-11-02T07:35:17.631Z,67.21
2022-11-02T07:38:05.901Z,67.31
2022-11-02T07:40:51.196Z,67.25
2022-11-02T07:43:38.783Z,67.37
2022-11-02T07:46:45.710Z,67.21
2022-11-02T07:49:30.916Z,67.14
2022-11-02T07:52:16.230Z,67.22
2022-11-02T07:55:01.685Z,67.33
2022-11-02T07:58:01.303Z,67.17
2022-11-02T08:00:46.437Z,67.54
2022-11-02T08:03:31.756Z,67.72
2022-11-02T08:06:16.919Z,67.50
2022-11-02T08:09:03.125Z,67.67
2022-11-02T08:11:48.450Z,67.81
2022-11-02T08:14:33.715Z,67.61
2022-11-02T08:17:19.054Z,67.56
2022-11-02T08:20:04.742Z,67.72
2022-11-02T08:22:50.526Z,67.75
2022-11-02T08:25:36.282Z,67.76
2022-11-02T08:28:24.894Z,68.01
2022-11-02T08:31:15.959Z,67.75
2022-11-02T08:34:01.423Z,67.82
2022-11-02T08:36:46.700Z,68.00
2022-11-02T08:39:31.944Z,67.90
2022-11-02T08:42:17.655Z,67.76
2022-11-02T08:45:03.140Z,67.90
2022-11-02T08:47:48.472Z,67.87
2022-11-02T08:50:34.733Z,67.85
2022-11-02T08:53:19.988Z,67.95
2022-11-02T08:56:05.298Z,68.10
2022-11-02T08:58:50.505Z,68.17
2022-11-02T09:01:35.862Z,68.15
2022-11-02T09:04:21.138Z,68.11
2022-11-02T09:07:06.390Z,67.99
2022-11-02T09:09:51.552Z,68.10
2022-11-02T09:12:36.796Z,68.05
2022-11-02T09:15:22.290Z,68.02
2022-11-02T09:18:09.131Z,67.93
2022-11-02T09:20:54.224Z,67.98
2022-11-02T09:23:39.806Z,68.02
2022-11-02T09:26:24.941Z,67.93
2022-11-02T09:29:10.352Z,68.00
2022-11-02T09:31:55.478Z,67.87
2022-11-02T09:34:40.818Z,67.97
2022-11-02T09:37:26.191Z,67.88
2022-11-02T09:40:13.499Z,67.83
2022-11-02T09:43:32.997Z,67.80
2022-11-02T09:46:32.651Z,67.74
2022-11-02T09:49:30.064Z,67.80
2022-11-02T09:52:33.547Z,67.89
2022-11-02T09:55:25.000Z,67.76
2022-11-02T09:58:18.298Z,67.86
2022-11-02T10:01:18.480Z,67.70
2022-11-02T10:04:34.305Z,67.73
2022-11-02T10:07:34.809Z,67.82
2022-11-02T10:10:26.434Z,67.81
2022-11-02T10:13:32.023Z,67.71
2022-11-02T10:16:36.136Z,67.65
2022-11-02T10:19:26.217Z,67.66
2022-11-02T10:22:16.457Z,67.75
2022-11-02T10:25:06.101Z,67.60
2022-11-02T10:28:01.490Z,67.62
2022-11-02T10:30:46.806Z,67.46
2022-11-02T10:33:32.084Z,67.59
2022-11-02T10:36:37.990Z,67.74
2022-11-02T10:39:34.177Z,67.74
2022-11-02T10:43:00.240Z,67.69
2022-11-02T10:46:08.924Z,67.68
2022-11-02T10:48:59.275Z,67.75
2022-11-02T10:51:44.831Z,67.75
2022-11-02T10:54:34.244Z,67.75
2022-11-02T10:57:24.107Z,67.54
2022-11-02T11:00:30.263Z,67.52
2022-11-02T11:03:17.620Z,67.65
2022-11-02T11:06:04.937Z,67.59
2022-11-02T11:08:52.165Z,67.56
2022-11-02T11:11:38.360Z,67.46
2022-11-02T11:20:43.108Z,67.51
2022-11-02T11:23:28.622Z,67.57
2022-11-02T11:26:28.361Z,67.56
2022-11-02T11:29:23.393Z,67.56
2022-11-02T11:32:27.128Z,67.53
2022-11-02T11:35:18.128Z,67.54
2022-11-02T11:38:08.918Z,67.55
2022-11-02T11:40:58.250Z,67.42
2022-11-02T11:43:46.761Z,67.54
2022-11-02T11:46:48.772Z,67.35
2022-11-02T11:50:02.869Z,67.20
2022-11-02T11:52:42.603Z,67.36
2022-11-02T11:55:31.691Z,67.37
2022-11-02T11:58:22.921Z,67.39
2022-11-02T12:01:20.156Z,67.30
2022-11-02T12:04:05.524Z,67.17
2022-11-02T12:07:09.031Z,67.27
2022-11-02T12:10:06.044Z,67.33
2022-11-02T12:12:57.562Z,67.29
2022-11-02T12:16:04.964Z,67.20
2022-11-02T12:19:21.171Z,67.27
2022-11-02T12:22:41.302Z,67.19
2022-11-02T12:26:04.925Z,67.16
2022-11-02T12:28:54.118Z,67.09
2022-11-02T12:31:48.037Z,67.18
2022-11-02T12:34:57.647Z,67.29
2022-11-02T12:37:56.894Z,67.45
2022-11-02T12:40:58.415Z,67.36
2022-11-02T12:43:47.319Z,67.41
2022-11-02T12:46:53.718Z,67.30
2022-11-02T12:49:48.052Z,67.15
2022-11-02T12:52:48.879Z,67.24
2022-11-02T12:55:40.036Z,62.65
2022-11-02T12:58:29.010Z,65.52
2022-11-02T13:01:27.541Z,66.11
2022-11-02T13:04:36.929Z,65.96
2022-11-02T13:07:31.259Z,65.89
2022-11-02T13:10:38.905Z,65.92
2022-11-02T13:13:45.072Z,66.04
2022-11-02T13:16:53.880Z,65.34
2022-11-02T13:19:48.445Z,65.81
2022-11-02T13:22:38.331Z,65.66
2022-11-02T13:25:33.374Z,65.69
2022-11-02T13:28:43.004Z,65.84
2022-11-02T13:31:51.236Z,65.66
2022-11-02T13:34:55.595Z,66.07
2022-11-02T13:37:45.169Z,66.80
2022-11-02T13:40:37.699Z,67.36
2022-11-02T13:43:42.055Z,67.64
2022-11-02T13:46:43.818Z,67.64
2022-11-02T13:49:42.912Z,68.07
2022-11-02T13:52:38.887Z,66.60
2022-11-02T13:55:45.719Z,67.31
2022-11-02T13:58:39.645Z,67.39
2022-11-02T14:01:27.165Z,67.66
2022-11-02T14:04:15.491Z,68.12
2022-11-02T14:07:04.560Z,68.40
2022-11-02T14:09:50.924Z,68.02
2022-11-02T14:12:47.244Z,68.30
2022-11-02T14:15:32.295Z,68.05
2022-11-02T14:18:28.791Z,67.76
2022-11-02T14:21:41.951Z,67.47
2022-11-02T14:24:33.529Z,67.75
2022-11-02T14:27:20.092Z,67.27
2022-11-02T14:30:25.478Z,67.60
2022-11-02T14:33:19.873Z,67.51
2022-11-02T14:36:17.344Z,67.47
2022-11-02T14:39:15.165Z,67.48
2022-11-02T14:42:31.171Z,67.49
2022-11-02T14:45:22.818Z,67.13
2022-11-02T14:48:16.130Z,65.76
2022-11-02T14:51:06.687Z,64.63
2022-11-02T14:54:00.190Z,64.46
2022-11-02T14:56:53.859Z,64.80
2022-11-02T14:59:44.952Z,65.13
2022-11-02T15:02:41.973Z,65.28
2022-11-02T15:05:35.085Z,65.81
2022-11-02T15:08:26.967Z,65.62
2022-11-02T15:11:40.442Z,65.59
2022-11-02T15:14:35.208Z,65.43
2022-11-02T15:17:22.312Z,65.53
2022-11-02T15:20:16.752Z,65.64
2022-11-02T15:23:26.508Z,65.52
2022-11-02T15:26:27.721Z,65.61
2022-11-02T15:29:40.299Z,65.45
2022-11-02T15:32:28.943Z,65.77
2022-11-02T15:35:20.410Z,65.71
2022-11-02T15:38:30.465Z,65.52
2022-11-02T15:41:46.232Z,65.84
2022-11-02T15:44:46.701Z,65.42
2022-11-02T15:47:50.024Z,65.13
2022-11-02T15:50:54.184Z,65.25
2022-11-02T15:54:03.874Z,65.24
2022-11-02T15:57:01.193Z,65.29
2022-11-02T16:00:21.672Z,65.39
2022-11-02T16:05:55.057Z,65.42
2022-11-02T16:08:41.902Z,64.55
2022-11-02T16:11:28.832Z,63.72
2022-11-02T16:14:18.093Z,63.48
2022-11-02T16:17:04.133Z,63.38
2022-11-02T16:19:50.041Z,63.46
2022-11-02T16:22:36.755Z,63.44
2022-11-02T16:25:45.994Z,63.75
2022-11-02T16:28:34.370Z,64.51
2022-11-02T16:31:31.262Z,63.28
2022-11-02T16:34:21.871Z,63.30
2022-11-02T16:37:13.329Z,62.65
2022-11-02T16:39:58.687Z,62.64
2022-11-02T16:42:46.499Z,62.56
2022-11-02T16:45:40.282Z,62.86
2022-11-02T16:48:32.864Z,62.74
2022-11-02T16:51:19.688Z,62.69
2022-11-02T16:54:18.469Z,62.71
2022-11-02T16:57:19.747Z,62.79
2022-11-02T17:00:17.526Z,63.12
2022-11-02T17:03:15.690Z,63.25
2022-11-02T17:06:06.342Z,63.98
2022-11-02T17:08:55.483Z,64.42
2022-11-02T17:11:46.986Z,64.67
2022-11-02T17:14:33.564Z,64.87
2022-11-02T17:17:25.288Z,64.72
2022-11-02T17:23:33.957Z,64.55
2022-11-02T17:26:22.708Z,63.79
2022-11-02T17:29:26.382Z,63.85
2022-11-02T17:32:16.774Z,63.71
2022-11-02T17:35:04.905Z,63.71
2022-11-02T17:37:50.080Z,63.77
2022-11-02T17:40:35.783Z,63.71
2022-11-02T17:43:23.820Z,63.09
2022-11-02T17:46:09.459Z,63.12
2022-11-02T17:48:58.661Z,63.00
2022-11-02T17:51:44.012Z,63.08
2022-11-02T17:54:30.018Z,62.98
2022-11-02T17:57:15.731Z,62.77
2022-11-02T18:00:01.658Z,62.54
2022-11-02T18:02:59.395Z,62.42
2022-11-02T18:05:49.459Z,61.93
2022-11-02T18:08:56.381Z,61.59
2022-11-02T18:11:41.959Z,61.83
2022-11-02T18:14:27.725Z,61.64
2022-11-02T18:17:13.040Z,61.52
2022-11-02T18:19:58.475Z,61.95
2022-11-02T18:22:43.942Z,62.06
2022-11-02T18:25:30.916Z,62.17
2022-11-02T18:28:16.578Z,62.22
2022-11-02T18:31:02.206Z,62.27
2022-11-02T18:33:47.640Z,62.17
2022-11-02T18:36:33.209Z,62.06
2022-11-02T18:39:18.532Z,62.06
2022-11-02T18:42:05.389Z,62.21
2022-11-02T18:44:50.835Z,62.16
2022-11-02T18:47:36.666Z,62.21
2022-11-02T18:50:21.870Z,62.15
2022-11-02T18:53:07.433Z,62.17
2022-11-02T18:55:52.682Z,62.19
2022-11-02T18:58:38.499Z,62.18
2022-11-02T19:01:25.878Z,62.36
2022-11-02T19:04:16.940Z,62.37
2022-11-02T19:07:21.507Z,62.34
2022-11-02T19:10:07.097Z,62.19
2022-11-02T19:12:52.605Z,62.40
2022-11-02T19:15:42.375Z,62.38
2022-11-02T19:18:28.506Z,62.33
2022-11-02T19:21:13.874Z,62.13
2022-11-02T19:24:00.009Z,62.33
2022-11-02T19:26:45.449Z,62.63
2022-11-02T19:29:30.668Z,62.30
2022-11-02T19:32:16.961Z,62.37
2022-11-02T19:35:02.629Z,62.42
2022-11-02T19:37:47.868Z,62.26
2022-11-02T19:40:34.102Z,62.52
2022-11-02T19:43:19.494Z,62.44
2022-11-02T19:46:07.271Z,62.43
2022-11-02T19:48:53.509Z,62.31
2022-11-02T19:51:38.914Z,62.22
2022-11-02T19:54:24.211Z,62.31
2022-11-02T19:57:09.382Z,62.59
2022-11-02T19:59:54.621Z,62.33
2022-11-02T20:02:40.106Z,62.38
2022-11-02T20:05:25.278Z,62.31
2022-11-02T20:08:11.100Z,62.31
2022-11-02T20:11:06.679Z,62.30
2022-11-02T20:13:52.302Z,62.43
2022-11-02T20:16:37.478Z,62.25
2022-11-02T20:19:22.807Z,62.26
2022-11-02T20:22:07.950Z,62.41
2022-11-02T20:24:53.133Z,62.39
2022-11-02T20:27:40.717Z,62.15
2022-11-02T20:30:26.316Z,62.20
2022-11-02T20:33:11.424Z,62.22
2022-11-02T20:35:56.563Z,62.01
2022-11-02T20:38:42.469Z,62.17
2022-11-02T20:41:27.788Z,62.26
2022-11-02T20:44:12.917Z,62.31
2022-11-02T20:46:58.205Z,62.25
2022-11-02T20:49:51.319Z,62.34
2022-11-02T20:52:38.394Z,62.11
2022-11-02T20:55:23.666Z,62.10
2022-11-02T20:58:08.953Z,62.21
2022-11-02T21:00:54.629Z,62.25
2022-11-02T21:03:40.444Z,62.16
2022-11-02T21:06:25.985Z,62.06
2022-11-02T21:09:12.198Z,62.13
2022-11-02T21:12:17.472Z,62.23
2022-11-02T21:15:02.872Z,62.13
2022-11-02T21:17:48.080Z,62.10
2022-11-02T21:20:34.464Z,62.17
2022-11-02T21:23:19.881Z,62.25
2022-11-02T21:26:08.140Z,62.07
2022-11-02T21:28:53.873Z,62.06
2022-11-02T21:31:39.230Z,62.05
2022-11-02T21:34:24.596Z,61.87
2022-11-02T21:37:09.803Z,61.97
2022-11-02T21:39:55.106Z,61.92
2022-11-02T21:42:41.387Z,61.95
2022-11-02T21:45:26.568Z,61.64
2022-11-02T21:48:12.209Z,61.71
2022-11-02T21:51:07.842Z,61.63
2022-11-02T21:53:53.081Z,61.83
2022-11-02T21:56:38.418Z,62.13
2022-11-02T21:59:23.667Z,61.81
2022-11-02T22:02:09.582Z,61.72
2022-11-02T22:04:56.020Z,61.59
2022-11-02T22:08:01.532Z,61.42
2022-11-02T22:10:47.342Z,61.46
2022-11-02T22:13:32.652Z,61.53
2022-11-02T22:16:20.404Z,61.34
2022-11-02T22:19:13.885Z,61.35
2022-11-02T22:22:00.039Z,61.46
2022-11-02T22:24:45.615Z,61.40
2022-11-02T22:27:30.946Z,61.28
2022-11-02T22:30:16.216Z,61.60
2022-11-02T22:33:01.441Z,61.79
2022-11-02T22:35:46.726Z,61.75
2022-11-02T22:38:50.537Z,61.76
2022-11-02T22:41:38.298Z,61.79
2022-11-02T22:44:24.043Z,61.68
2022-11-02T22:47:09.200Z,61.84
2022-11-02T22:49:54.541Z,61.85
2022-11-02T22:52:39.802Z,61.83
2022-11-02T22:55:24.993Z,62.05
2022-11-02T22:58:10.371Z,62.13
2022-11-02T23:00:56.402Z,62.13
2022-11-02T23:03:42.784Z,61.97
2022-11-02T23:06:28.889Z,62.33
2022-11-02T23:09:14.239Z,62.21
2022-11-02T23:11:59.613Z,62.17
2022-11-02T23:14:44.751Z,62.10
2022-11-02T23:17:30.002Z,62.05
2022-11-02T23:20:15.294Z,62.25
2022-11-02T23:23:19.251Z,62.26
2022-11-02T23:26:04.958Z,62.19
2022-11-02T23:29:08.539Z,62.32
2022-11-02T23:32:12.601Z,62.23
2022-11-02T23:35:17.532Z,62.34
2022-11-02T23:38:04.531Z,62.32
2022-11-02T23:40:54.513Z,62.56
2022-11-02T23:43:39.861Z,62.30
2022-11-02T23:46:25.186Z,62.16
2022-11-02T23:49:11.343Z,62.51
2022-11-02T23:52:15.261Z,62.41
2022-11-02T23:55:35.985Z,62.37
2022-11-02T23:58:21.122Z,62.44
